Time;durP1;ratioP1;P1;durP2;ratioP2;P2;SDS_P1;SDS_P2;PMS_P1;PMS_P2;Temp;Humidity;BMP_temperature;BMP_pressure;BME280_temperature;BME280_humidity;BME280_pressure;Samples;Min_cycle;Max_cycle;Signal;HPM_P1;HPM_P2
2023/08/28 00:02:09;;;;;;;3.42;1.92;;;;;;;-139.19;100.00;56970.53;5072231;28;20050;-66
2023/08/28 00:05:33;;;;;;;2.78;1.88;;;;;;;-139.19;100.00;56970.53;5053168;28;20028;-66
2023/08/28 00:08:56;;;;;;;8.02;1.92;;;;;;;-139.19;100.00;56970.53;5063023;28;20059;-66
2023/08/28 00:12:20;;;;;;;5.00;2.20;;;;;;;-139.19;100.00;56970.53;5072823;28;20468;-66
2023/08/28 00:15:44;;;;;;;4.35;1.75;;;;;;;-139.19;100.00;56970.53;5070647;28;20025;-66
2023/08/28 00:19:08;;;;;;;13.65;1.80;;;;;;;-139.19;100.00;56970.53;5072491;28;20032;-66
2023/08/28 00:22:32;;;;;;;5.40;1.83;;;;;;;-139.19;100.00;56970.53;5072282;28;20529;-66
2023/08/28 00:25:56;;;;;;;3.65;1.80;;;;;;;-139.19;100.00;56970.53;5072424;28;20025;-66
2023/08/28 00:29:19;;;;;;;3.10;1.92;;;;;;;-139.19;100.00;56970.53;5072107;28;20480;-66
2023/08/28 00:32:43;;;;;;;9.82;2.17;;;;;;;-139.19;100.00;56970.53;5063652;28;20028;-66
2023/08/28 00:36:07;;;;;;;4.30;2.50;;;;;;;-139.19;100.00;56970.53;5058723;28;20380;-71
2023/08/28 00:39:31;;;;;;;4.97;1.83;;;;;;;-139.19;100.00;56970.53;5052939;28;20035;-70
2023/08/28 00:42:55;;;;;;;6.70;2.30;;;;;;;-139.19;100.00;56970.53;5053897;28;20064;-72
2023/08/28 00:46:19;;;;;;;6.22;2.50;;;;;;;-139.19;100.00;56970.53;5052823;28;20511;-71
2023/08/28 00:49:43;;;;;;;1.98;1.42;;;;;;;-139.19;100.00;56970.53;5068487;28;20497;-72
2023/08/28 00:53:08;;;;;;;4.15;1.83;;;;;;;-139.19;100.00;56970.53;5054071;28;20033;-72
2023/08/28 00:56:34;;;;;;;6.28;2.25;;;;;;;-139.19;100.00;56970.53;5052752;28;20040;-70
2023/08/28 00:59:58;;;;;;;7.05;1.80;;;;;;;-139.19;100.00;56970.53;5052740;28;20025;-72
2023/08/28 01:03:22;;;;;;;7.95;1.90;;;;;;;-139.19;100.00;56970.53;5059765;28;20445;-72
2023/08/28 01:07:05;;;;;;;5.93;1.85;;;;;;;-139.19;100.00;56970.53;5055714;28;20036;-72
2023/08/28 01:10:41;;;;;;;9.27;1.80;;;;;;;-139.19;100.00;56970.53;5071951;28;20036;-72
2023/08/28 01:14:27;;;;;;;9.05;2.00;;;;;;;-139.19;100.00;56970.53;5058678;28;20400;-72
2023/08/28 01:17:58;;;;;;;7.20;1.73;;;;;;;-139.19;100.00;56970.53;5052784;28;20036;-72
2023/08/28 01:21:23;;;;;;;3.85;1.90;;;;;;;-139.19;100.00;56970.53;5056670;28;20112;-72
2023/08/28 01:25:09;;;;;;;5.60;1.95;;;;;;;-139.19;100.00;56970.53;5053476;28;20480;-72
2023/08/28 01:28:34;;;;;;;6.78;2.05;;;;;;;-139.19;100.00;56970.53;5056083;28;20491;-72
2023/08/28 01:31:58;;;;;;;4.18;2.05;;;;;;;-139.19;100.00;56970.53;5055932;28;20107;-72
2023/08/28 01:35:24;;;;;;;7.43;2.13;;;;;;;-139.19;100.00;56970.53;5069128;28;20533;-72
2023/08/28 01:39:07;;;;;;;3.35;1.70;;;;;;;-139.19;100.00;56970.53;5070466;28;20026;-72
2023/08/28 01:42:32;;;;;;;9.20;2.10;;;;;;;-139.19;100.00;56970.53;5075183;28;20381;-70
2023/08/28 01:45:57;;;;;;;5.10;2.10;;;;;;;-139.19;100.00;56970.53;5073716;28;20077;-72
2023/08/28 01:49:28;;;;;;;3.92;1.90;;;;;;;-139.19;100.00;56970.53;5074533;28;20052;-66
2023/08/28 01:52:52;;;;;;;3.65;1.80;;;;;;;-139.19;100.00;56970.53;5058145;28;20112;-66
2023/08/28 01:56:24;;;;;;;8.32;2.00;;;;;;;-139.19;100.00;56970.53;5070866;28;20052;-66
2023/08/28 01:59:55;;;;;;;2.17;1.40;;;;;;;-139.19;100.00;56970.53;5055698;28;20384;-66
2023/08/28 02:03:18;;;;;;;2.97;1.95;;;;;;;-139.19;100.00;56970.53;5074836;28;20357;-66
2023/08/28 02:06:42;;;;;;;3.47;1.90;;;;;;;-139.19;100.00;56970.53;5059090;28;20033;-66
2023/08/28 02:10:06;;;;;;;3.45;1.85;;;;;;;-139.19;100.00;56970.53;5055261;28;20042;-66
2023/08/28 02:13:30;;;;;;;5.25;1.83;;;;;;;-139.19;100.00;56970.53;5055178;28;20028;-66
2023/08/28 02:16:54;;;;;;;5.32;2.13;;;;;;;-139.19;100.00;56970.53;5070695;28;20499;-66
2023/08/28 02:20:18;;;;;;;5.68;1.90;;;;;;;-139.19;100.00;56970.53;5074423;28;20150;-66
2023/08/28 02:23:42;;;;;;;6.82;1.92;;;;;;;-139.19;100.00;56970.53;5054992;28;20067;-66
2023/08/28 02:27:06;;;;;;;3.20;1.58;;;;;;;-139.19;100.00;56970.53;5061903;28;20032;-66
2023/08/28 02:30:30;;;;;;;10.68;2.10;;;;;;;-139.19;100.00;56970.53;5074251;28;20441;-66
2023/08/28 02:33:53;;;;;;;4.00;1.60;;;;;;;-139.19;100.00;56970.53;5074840;28;20028;-66
2023/08/28 02:37:17;;;;;;;8.38;1.83;;;;;;;-139.19;100.00;56970.53;5070304;28;20060;-65
2023/08/28 02:40:41;;;;;;;5.95;1.75;;;;;;;-139.19;100.00;56970.53;5068240;28;20050;-66
2023/08/28 02:44:05;;;;;;;5.85;1.60;;;;;;;-139.19;100.00;56970.53;5074696;28;20103;-66
2023/08/28 02:47:29;;;;;;;8.13;2.00;;;;;;;-139.19;100.00;56970.53;5074553;28;20037;-66
2023/08/28 02:50:53;;;;;;;6.03;2.72;;;;;;;-139.19;100.00;56970.53;5074350;28;20049;-65
2023/08/28 02:54:17;;;;;;;19.83;2.17;;;;;;;-139.19;100.00;56970.53;5069984;28;20039;-65
2023/08/28 02:57:41;;;;;;;4.75;2.00;;;;;;;-139.19;100.00;56970.53;5054519;28;20476;-72
2023/08/28 03:01:05;;;;;;;2.90;1.88;;;;;;;-139.19;100.00;56970.53;5054325;28;20029;-72
2023/08/28 03:04:29;;;;;;;7.22;1.60;;;;;;;-139.19;100.00;56970.53;5054387;28;20131;-72
2023/08/28 03:07:53;;;;;;;3.28;2.05;;;;;;;-139.19;100.00;56970.53;5054194;28;20476;-72
2023/08/28 03:11:17;;;;;;;3.50;2.00;;;;;;;-139.19;100.00;56970.53;5058540;28;20085;-72
2023/08/28 03:14:41;;;;;;;5.68;1.92;;;;;;;-139.19;100.00;56970.53;5074323;28;20391;-72
2023/08/28 03:18:04;;;;;;;4.13;1.85;;;;;;;-139.19;100.00;56970.53;5074006;28;20033;-72
2023/08/28 03:21:30;;;;;;;4.43;1.85;;;;;;;-139.19;100.00;56970.53;5073992;28;20056;-72
2023/08/28 03:24:54;;;;;;;4.05;1.88;;;;;;;-139.19;100.00;56970.53;5073779;28;20479;-72
2023/08/28 03:28:18;;;;;;;3.95;1.98;;;;;;;-139.19;100.00;56970.53;5060699;28;20043;-72
2023/08/28 03:31:42;;;;;;;8.15;1.80;;;;;;;-139.19;100.00;56970.53;5054048;28;20506;-72
2023/08/28 03:35:06;;;;;;;8.52;1.50;;;;;;;-139.19;100.00;56970.53;5073813;28;20141;-72
2023/08/28 03:38:30;;;;;;;3.47;1.50;;;;;;;-139.19;100.00;56970.53;5073926;28;20141;-72
2023/08/28 03:41:54;;;;;;;2.65;1.67;;;;;;;-139.19;100.00;56970.53;5073606;28;20024;-72
2023/08/28 03:45:18;;;;;;;13.57;2.00;;;;;;;-139.19;100.00;56970.53;5073521;28;20400;-72
2023/08/28 03:48:42;;;;;;;8.13;2.05;;;;;;;-139.19;100.00;56970.53;5073218;28;20396;-76
2023/08/28 03:52:06;;;;;;;4.10;1.88;;;;;;;-139.19;100.00;56970.53;5073479;28;20048;-77
2023/08/28 03:55:29;;;;;;;22.55;2.90;;;;;;;-139.19;100.00;56970.53;5073175;28;20418;-77
2023/08/28 03:59:00;;;;;;;6.60;2.75;;;;;;;-139.19;100.00;56970.53;5073407;28;20044;-77
2023/08/28 04:02:24;;;;;;;3.15;1.75;;;;;;;-139.19;100.00;56970.53;5053558;28;20095;-77
2023/08/28 04:05:48;;;;;;;4.20;1.95;;;;;;;-139.19;100.00;56970.53;5053227;28;20090;-77
2023/08/28 04:09:13;;;;;;;11.98;2.20;;;;;;;-139.19;100.00;56970.53;5053265;28;20476;-77
2023/08/28 04:12:37;;;;;;;7.28;1.73;;;;;;;-139.19;100.00;56970.53;5053468;28;20028;-78
2023/08/28 04:16:01;;;;;;;4.18;1.65;;;;;;;-139.19;100.00;56970.53;5053169;28;20032;-78
2023/08/28 04:19:25;;;;;;;5.55;1.55;;;;;;;-139.19;100.00;56970.53;5053395;28;20033;-77
2023/08/28 04:22:49;;;;;;;3.60;1.73;;;;;;;-139.19;100.00;56970.53;5053138;28;20047;-77
2023/08/28 04:26:12;;;;;;;6.53;3.10;;;;;;;-139.19;100.00;56970.53;5053044;28;20029;-77
2023/08/28 04:29:36;;;;;;;5.28;1.90;;;;;;;-139.19;100.00;56970.53;5053320;28;20491;-78
2023/08/28 04:33:00;;;;;;;2.83;1.77;;;;;;;-139.19;100.00;56970.53;5066785;28;20032;-78
2023/08/28 04:36:24;;;;;;;4.03;1.95;;;;;;;-139.19;100.00;56970.53;5073012;28;20025;-77
2023/08/28 04:39:48;;;;;;;2.95;1.48;;;;;;;-139.19;100.00;56970.53;5073038;28;20036;-77
2023/08/28 04:43:13;;;;;;;2.60;1.60;;;;;;;-139.19;100.00;56970.53;5072997;28;20107;-76
2023/08/28 04:46:36;;;;;;;3.28;1.92;;;;;;;-139.19;100.00;56970.53;5072892;28;20138;-77
2023/08/28 04:50:00;;;;;;;4.95;1.85;;;;;;;-139.19;100.00;56970.53;5072810;28;20392;-77
2023/08/28 04:53:24;;;;;;;3.35;1.67;;;;;;;-139.19;100.00;56970.53;5072772;28;20082;-74
2023/08/28 04:56:48;;;;;;;3.30;1.58;;;;;;;-139.19;100.00;56970.53;5072880;28;20062;-77
2023/08/28 05:00:12;;;;;;;2.50;1.48;;;;;;;-139.19;100.00;56970.53;5072791;28;20020;-77
2023/08/28 05:03:37;;;;;;;6.68;1.83;;;;;;;-139.19;100.00;56970.53;5076670;28;20181;-77
2023/08/28 05:07:02;;;;;;;3.95;1.95;;;;;;;-139.19;100.00;56970.53;5073361;28;20024;-77
2023/08/28 05:10:26;;;;;;;3.38;1.52;;;;;;;-139.19;100.00;56970.53;5056726;28;20033;-78
2023/08/28 05:13:50;;;;;;;1.77;1.17;;;;;;;-139.19;100.00;56970.53;5056700;28;20476;-77
2023/08/28 05:17:14;;;;;;;4.90;1.58;;;;;;;-139.19;100.00;56970.53;5060723;28;20375;-65
2023/08/28 05:20:37;;;;;;;2.10;1.50;;;;;;;-139.19;100.00;56970.53;5076338;28;20042;-65
2023/08/28 05:24:01;;;;;;;4.25;1.60;;;;;;;-139.19;100.00;56970.53;5076231;28;20036;-65
2023/08/28 05:27:25;;;;;;;2.05;1.60;;;;;;;-139.19;100.00;56970.53;5076076;28;20112;-65
2023/08/28 05:30:50;;;;;;;4.03;1.90;;;;;;;-139.19;100.00;56970.53;5060492;28;20024;-65
2023/08/28 05:34:14;;;;;;;6.13;1.67;;;;;;;-139.19;100.00;56970.53;5056034;28;20504;-65
2023/08/28 05:37:37;;;;;;;7.85;1.42;;;;;;;-139.19;100.00;56970.53;5056229;28;20480;-65
2023/08/28 05:41:01;;;;;;;3.17;1.40;;;;;;;-139.19;100.00;56970.53;5057869;28;20063;-65
2023/08/28 05:44:25;;;;;;;3.83;1.60;;;;;;;-139.19;100.00;56970.53;5070475;28;20471;-65
2023/08/28 05:47:49;;;;;;;2.88;1.55;;;;;;;-139.19;100.00;56970.53;5057938;28;20029;-65
2023/08/28 05:51:13;;;;;;;3.97;1.58;;;;;;;-139.19;100.00;56970.53;5069275;28;20048;-65
2023/08/28 05:54:37;;;;;;;2.92;1.90;;;;;;;-139.19;100.00;56970.53;5074997;28;20032;-65
2023/08/28 05:58:01;;;;;;;14.02;2.10;;;;;;;-139.19;100.00;56970.53;5073772;28;20105;-65
2023/08/28 06:01:24;;;;;;;2.50;1.60;;;;;;;-139.19;100.00;56970.53;5054180;28;20119;-65
2023/08/28 06:04:48;;;;;;;6.30;1.33;;;;;;;-139.19;100.00;56970.53;5067603;28;20499;-65
2023/08/28 06:08:12;;;;;;;4.95;1.80;;;;;;;-139.19;100.00;56970.53;5055051;28;20021;-65
2023/08/28 06:11:36;;;;;;;3.00;1.67;;;;;;;-139.19;100.00;56970.53;5056090;28;20400;-65
2023/08/28 06:15:00;;;;;;;3.67;1.63;;;;;;;-139.19;100.00;56970.53;5055137;28;20036;-65
2023/08/28 06:18:24;;;;;;;5.22;1.63;;;;;;;-139.19;100.00;56970.53;5055396;28;20393;-65
2023/08/28 06:21:48;;;;;;;5.70;1.95;;;;;;;-139.19;100.00;56970.53;5055140;28;20029;-64
2023/08/28 06:25:12;;;;;;;4.32;2.30;;;;;;;-139.19;100.00;56970.53;5066758;28;20048;-65
2023/08/28 06:28:36;;;;;;;6.30;1.92;;;;;;;-139.19;100.00;56970.53;5075108;28;20028;-65
2023/08/28 06:32:00;;;;;;;8.13;2.08;;;;;;;-139.19;100.00;56970.53;5062579;28;20021;-65
2023/08/28 06:35:24;;;;;;;5.47;2.28;;;;;;;-139.19;100.00;56970.53;5071143;28;20052;-65
2023/08/28 06:38:51;;;;;;;15.45;2.53;;;;;;;-139.19;100.00;56970.53;5063485;28;20054;-65
2023/08/28 06:42:15;;;;;;;4.30;2.47;;;;;;;-139.19;100.00;56970.53;5074714;28;20016;-65
2023/08/28 06:45:39;;;;;;;7.18;2.53;;;;;;;-139.19;100.00;56970.53;5074747;28;20032;-65
2023/08/28 06:49:04;;;;;;;5.28;2.22;;;;;;;-139.19;100.00;56970.53;5077030;28;20070;-65
2023/08/28 06:52:27;;;;;;;5.38;2.40;;;;;;;-139.19;100.00;56970.53;5066561;28;20040;-65
2023/08/28 06:55:51;;;;;;;8.85;2.78;;;;;;;-139.19;100.00;56970.53;5063178;28;20040;-65
2023/08/28 06:59:15;;;;;;;9.38;2.45;;;;;;;-139.19;100.00;56970.53;5063337;28;20086;-65
2023/08/28 07:02:39;;;;;;;6.90;2.58;;;;;;;-139.19;100.00;56970.53;5061283;28;20029;-65
2023/08/28 07:06:03;;;;;;;11.20;2.85;;;;;;;-139.19;100.00;56970.53;5054502;28;20104;-65
2023/08/28 07:09:27;;;;;;;6.22;2.70;;;;;;;-139.19;100.00;56970.53;5056653;28;20391;-65
2023/08/28 07:12:51;;;;;;;3.85;2.13;;;;;;;-139.19;100.00;56970.53;5066333;28;20029;-65
2023/08/28 07:16:18;;;;;;;5.95;2.60;;;;;;;-139.19;100.00;56970.53;5065352;28;20060;-65
2023/08/28 07:19:42;;;;;;;2.97;2.30;;;;;;;-139.19;100.00;56970.53;5061951;28;20032;-65
2023/08/28 07:23:06;;;;;;;9.50;2.40;;;;;;;-139.19;100.00;56970.53;5056331;28;20057;-65
2023/08/28 07:26:29;;;;;;;8.63;2.78;;;;;;;-139.19;100.00;56970.53;5057289;28;20495;-65
2023/08/28 07:29:53;;;;;;;3.40;2.30;;;;;;;-139.19;100.00;56970.53;5073698;28;20028;-65
2023/08/28 07:33:18;;;;;;;10.13;2.35;;;;;;;-139.19;100.00;56970.53;5052958;28;20064;-65
2023/08/28 07:36:44;;;;;;;6.90;2.90;;;;;;;-139.19;100.00;56970.53;5053684;28;20033;-65
2023/08/28 07:40:08;;;;;;;7.03;2.53;;;;;;;-139.19;100.00;56970.53;5053840;28;20033;-65
2023/08/28 07:43:33;;;;;;;6.55;2.70;;;;;;;-139.19;100.00;56970.53;5058695;28;20033;-65
2023/08/28 07:46:56;;;;;;;6.32;2.78;;;;;;;-139.19;100.00;56970.53;5072946;28;20027;-65
2023/08/28 07:50:20;;;;;;;9.32;2.92;;;;;;;-139.19;100.00;56970.53;5073389;28;20143;-65
2023/08/28 07:53:45;;;;;;;124.03;66.43;;;;;;;-139.19;100.00;56970.53;5073645;28;20064;-65
2023/08/28 07:57:09;;;;;;;104.55;62.03;;;;;;;-139.19;100.00;56970.53;5073408;28;20388;-65
2023/08/28 08:00:34;;;;;;;56.72;36.38;;;;;;;-139.19;100.00;56970.53;5072866;28;20040;-65
2023/08/28 08:03:58;;;;;;;34.50;21.52;;;;;;;-139.19;100.00;56970.53;5054332;28;20443;-65
2023/08/28 08:07:22;;;;;;;19.23;10.38;;;;;;;-139.19;100.00;56970.53;5053083;28;20068;-65
2023/08/28 08:10:46;;;;;;;10.82;5.32;;;;;;;-139.19;100.00;56970.53;5052980;28;20182;-65
2023/08/28 08:14:10;;;;;;;9.80;4.32;;;;;;;-139.19;100.00;56970.53;5059886;28;20024;-65
2023/08/28 08:17:36;;;;;;;7.20;2.72;;;;;;;-139.19;100.00;56970.53;5072644;28;20106;-65
2023/08/28 08:21:00;;;;;;;8.18;3.03;;;;;;;-139.19;100.00;56970.53;5051591;28;20067;-65
2023/08/28 08:24:24;;;;;;;6.22;2.17;;;;;;;-139.19;100.00;56970.53;5052608;28;20025;-66
2023/08/28 08:27:48;;;;;;;6.07;2.40;;;;;;;-139.19;100.00;56970.53;5055371;28;20037;-65
2023/08/28 08:31:12;;;;;;;10.93;3.08;;;;;;;-139.19;100.00;56970.53;5071415;28;20036;-65
2023/08/28 08:34:36;;;;;;;5.90;2.78;;;;;;;-139.19;100.00;56970.53;5073120;28;20028;-65
2023/08/28 08:38:00;;;;;;;4.70;2.28;;;;;;;-139.19;100.00;56970.53;5077100;28;20028;-65
2023/08/28 08:41:24;;;;;;;8.18;2.88;;;;;;;-139.19;100.00;56970.53;5076968;28;20029;-65
2023/08/28 08:44:48;;;;;;;11.25;3.05;;;;;;;-139.19;100.00;56970.53;5076987;28;20391;-65
2023/08/28 08:48:15;;;;;;;6.68;3.13;;;;;;;-139.19;100.00;56970.53;5077048;28;20423;-65
2023/08/28 08:51:41;;;;;;;13.90;3.40;;;;;;;-139.19;100.00;56970.53;5076794;28;20076;-65
2023/08/28 08:55:22;;;;;;;11.93;3.17;;;;;;;-139.19;100.00;56970.53;5077045;28;20444;-65
2023/08/28 08:58:48;;;;;;;6.68;2.63;;;;;;;-139.19;100.00;56970.53;5076735;28;20024;-65
2023/08/28 09:02:13;;;;;;;5.75;2.75;;;;;;;-139.19;100.00;56970.53;5076626;28;20033;-65
2023/08/28 09:05:39;;;;;;;6.20;2.95;;;;;;;-139.19;100.00;56970.53;5076539;28;20024;-65
2023/08/28 09:09:06;;;;;;;5.10;2.63;;;;;;;-139.19;100.00;56970.53;5076556;28;20071;-65
2023/08/28 09:12:30;;;;;;;5.78;2.30;;;;;;;-139.19;100.00;56970.53;5076658;28;20438;-65
2023/08/28 09:15:54;;;;;;;5.63;2.65;;;;;;;-139.19;100.00;56970.53;5076378;28;20028;-65
2023/08/28 09:19:18;;;;;;;5.30;2.63;;;;;;;-139.19;100.00;56970.53;5076308;28;20099;-65
2023/08/28 09:22:47;;;;;;;4.35;2.47;;;;;;;-139.19;100.00;56970.53;5076519;28;20055;-65
2023/08/28 09:26:21;;;;;;;7.13;2.47;;;;;;;-139.19;100.00;56970.53;5076181;28;20426;-65
2023/08/28 09:29:57;;;;;;;5.90;2.38;;;;;;;-139.19;100.00;56970.53;5076050;28;20037;-65
2023/08/28 09:33:25;;;;;;;4.57;2.03;;;;;;;-139.19;100.00;56970.53;5076057;28;20035;-65
2023/08/28 09:36:48;;;;;;;4.70;2.33;;;;;;;-139.19;100.00;56970.53;5076290;28;20387;-65
2023/08/28 09:40:12;;;;;;;3.75;1.98;;;;;;;-139.19;100.00;56970.53;5076190;28;20473;-65
2023/08/28 09:43:36;;;;;;;6.45;2.15;;;;;;;-139.19;100.00;56970.53;5075953;28;20028;-65
2023/08/28 09:47:02;;;;;;;5.50;2.22;;;;;;;-139.19;100.00;56970.53;5074816;28;20025;-65
2023/08/28 09:50:27;;;;;;;4.07;2.55;;;;;;;-139.19;100.00;56970.53;5075612;28;20127;-65
2023/08/28 09:53:58;;;;;;;7.32;2.20;;;;;;;-139.19;100.00;56970.53;5075723;28;20071;-65
2023/08/28 09:57:28;;;;;;;6.85;2.55;;;;;;;-139.19;100.00;56970.53;5075645;28;20024;-65
2023/08/28 10:00:52;;;;;;;8.38;2.30;;;;;;;-139.19;100.00;56970.53;5055581;28;20408;-65
2023/08/28 10:04:19;;;;;;;8.77;2.00;;;;;;;-139.19;100.00;56970.53;5064836;28;20032;-65
2023/08/28 10:07:44;;;;;;;5.15;1.92;;;;;;;-139.19;100.00;56970.53;5075442;28;20029;-76
2023/08/28 10:11:13;;;;;;;5.90;2.15;;;;;;;-139.19;100.00;56970.53;5075572;28;20545;-76
2023/08/28 10:14:37;;;;;;;5.18;2.33;;;;;;;-139.19;100.00;56970.53;5075263;28;20035;-76
2023/08/28 10:18:11;;;;;;;8.68;2.00;;;;;;;-139.19;100.00;56970.53;5070147;28;20480;-76
2023/08/28 10:21:36;;;;;;;4.35;2.00;;;;;;;-139.19;100.00;56970.53;5063162;28;20115;-76
2023/08/28 10:25:01;;;;;;;6.18;1.80;;;;;;;-139.19;100.00;56970.53;5066578;28;20086;-76
2023/08/28 10:28:26;;;;;;;8.63;1.98;;;;;;;-139.19;100.00;56970.53;5062373;28;20529;-76
2023/08/28 10:31:50;;;;;;;7.75;2.00;;;;;;;-139.19;100.00;56970.53;5074736;28;20029;-76
2023/08/28 10:35:16;;;;;;;4.68;2.25;;;;;;;-139.19;100.00;56970.53;5074866;28;20032;-76
2023/08/28 10:38:42;;;;;;;6.63;1.70;;;;;;;-139.19;100.00;56970.53;5074820;28;20025;-76
2023/08/28 10:47:49;;;;;;;4.65;1.80;;;;;;;;;;5033545;28;20499;-74
2023/08/28 10:50:14;;;;;;;2.97;1.55;;;;;;;;;;5021190;28;20512;-74
2023/08/28 10:52:40;;;;;;;5.18;1.98;;;;;;;;;;5020967;28;20032;-75
2023/08/28 10:55:06;;;;;;;4.43;1.60;;;;;;;;;;5023116;28;20461;-75
2023/08/28 10:57:31;;;;;;;6.13;1.60;;;;;;;;;;5039395;28;20114;-76
2023/08/28 11:00:01;;;;;;;4.43;1.60;;;;;;;;;;5032764;28;20048;-76
2023/08/28 11:02:46;;;;;;;4.47;1.63;;;;;;;;;;5032719;28;20032;-76
2023/08/28 11:05:12;;;;;;;5.07;1.70;;;;;;;;;;5030322;28;20465;-76
2023/08/28 11:07:44;;;;;;;4.28;1.55;;;;;;;;;;5030364;28;20088;-76
2023/08/28 11:10:19;;;;;;;2.92;1.75;;;;;;;;;;5030416;28;20022;-76
2023/08/28 11:12:53;;;;;;;3.97;1.90;;;;;;;;;;5031062;28;20596;-76
2023/08/28 11:15:31;;;;;;;2.90;1.48;;;;;;;;;;5050097;28;20040;-76
2023/08/28 11:18:15;;;;;;;7.22;1.55;;;;;;;;;;5049530;28;20021;-76
2023/08/28 11:20:40;;;;;;;8.00;1.25;;;;;;;;;;5049981;28;20025;-76
2023/08/28 11:23:05;;;;;;;3.57;1.20;;;;;;;;;;5049982;28;20151;-76
2023/08/28 11:25:35;;;;;;;3.38;1.55;;;;;;;;;;5035544;28;20312;-76
2023/08/28 11:28:00;;;;;;;5.70;1.67;;;;;;;;;;5030291;28;20461;-76
2023/08/28 11:30:26;;;;;;;2.87;1.40;;;;;;;;;;5029934;28;20088;-76
2023/08/28 11:32:52;;;;;;;6.35;1.75;;;;;;;;;;5029175;28;20109;-75
2023/08/28 11:35:18;;;;;;;2.83;1.48;;;;;;;;;;5031909;28;20385;-74
2023/08/28 11:37:54;;;;;;;3.30;1.90;;;;;;;;;;5021333;28;20137;-76
2023/08/28 11:40:23;;;;;;;2.92;1.35;;;;;;;;;;5021585;28;20025;-76
2023/08/28 11:42:49;;;;;;;6.15;1.58;;;;;;;;;;5021509;28;20029;-74
2023/08/28 11:45:18;;;;;;;3.45;1.80;;;;;;;;;;5020255;28;20025;-76
2023/08/28 11:47:43;;;;;;;4.90;1.50;;;;;;;;;;5027565;28;20250;-76
2023/08/28 11:50:09;;;;;;;2.13;1.30;;;;;;;;;;5018737;28;20077;-75
2023/08/28 11:52:34;;;;;;;8.77;1.50;;;;;;;;;;5017560;28;20255;-76
2023/08/28 11:55:03;;;;;;;4.50;1.30;;;;;;;;;;5037025;28;20060;-76
2023/08/28 11:57:28;;;;;;;6.43;1.80;;;;;;;;;;5007368;28;20034;-76
2023/08/28 11:59:55;;;;;;;8.73;1.98;;;;;;;;;;5010131;28;20021;-76
2023/08/28 12:02:20;;;;;;;4.85;1.42;;;;;;;;;;5012750;28;20010;-76
2023/08/28 12:04:48;;;;;;;3.37;1.50;;;;;;;;;;5016092;28;20543;-76
2023/08/28 12:07:24;;;;;;;4.38;1.75;;;;;;;;;;5008206;28;20259;-76
2023/08/28 12:09:50;;;;;;;5.95;1.52;;;;;;;;;;5016022;28;20017;-76
2023/08/28 12:12:16;;;;;;;5.30;1.60;;;;;;;;;;5008058;28;20377;-76
2023/08/28 12:14:44;;;;;;;2.45;1.55;;;;;;;;;;5024034;28;20037;-76
2023/08/28 12:17:27;;;;;;;3.38;1.85;;;;;;;;;;5007213;28;20041;-75
2023/08/28 12:19:53;;;;;;;4.72;1.67;;;;;;;;;;5015841;28;20037;-76
2023/08/28 12:22:21;;;;;;;3.60;1.60;;;;;;;;;;5014260;28;20026;-76
2023/08/28 12:24:46;;;;;;;3.85;2.08;;;;;;;;;;5007773;28;20469;-76
2023/08/28 12:27:13;;;;;;;3.17;1.83;;;;;;;;;;5015691;28;20030;-76
2023/08/28 12:29:41;;;;;;;4.90;1.83;;;;;;;;;;5015612;28;20033;-76
2023/08/28 12:32:07;;;;;;;3.78;1.75;;;;;;;;;;5009353;28;20030;-77
2023/08/28 12:34:33;;;;;;;5.60;1.77;;;;;;;;;;5023069;28;20021;-76
2023/08/28 12:37:05;;;;;;;4.65;2.20;;;;;;;;;;4995813;28;20022;-76
2023/08/28 12:39:30;;;;;;;;;;;;;;;;;;4996232;28;20011;-77
2023/08/28 12:41:55;;;;;;;4.10;1.52;;;;;;;;;;5004408;28;19910;-75
2023/08/28 12:44:21;;;;;;;3.27;1.83;;;;;;;;;;4996269;28;20493;-77
2023/08/28 12:46:47;;;;;;;5.60;1.70;;;;;;;;;;4995851;28;20506;-76
2023/08/28 12:49:12;;;;;;;4.35;1.52;;;;;;;;;;5011615;28;20029;-76
2023/08/28 12:51:39;;;;;;;4.57;2.23;;;;;;;;;;5015190;28;20022;-76
2023/08/28 12:54:05;;;;;;;3.88;2.38;;;;;;;;;;5020171;28;20497;-76
2023/08/28 12:56:31;;;;;;;3.95;2.00;;;;;;;;;;4995353;28;20524;-77
2023/08/28 12:58:56;;;;;;;3.90;1.90;;;;;;;;;;5013284;28;20026;-76
2023/08/28 13:01:22;;;;;;;3.10;1.83;;;;;;;;;;5014312;28;20018;-77
2023/08/28 13:03:47;;;;;;;4.45;2.08;;;;;;;;;;5006996;28;20302;-77
2023/08/28 13:06:12;;;;;;;3.78;2.15;;;;;;;;;;5007053;28;20410;-76
2023/08/28 13:08:37;;;;;;;6.60;1.90;;;;;;;;;;5014575;28;20021;-76
2023/08/28 13:11:03;;;;;;;3.83;2.07;;;;;;;;;;5014221;28;20255;-76
2023/08/28 13:13:28;;;;;;;5.43;1.83;;;;;;;;;;4998542;28;20081;-76
2023/08/28 13:15:54;;;;;;;2.07;1.60;;;;;;;;;;5010475;28;20084;-76
2023/08/28 13:18:20;;;;;;;6.03;2.33;;;;;;;;;;5014694;28;20264;-76
2023/08/28 13:20:45;;;;;;;4.28;2.40;;;;;;;;;;4997692;28;20031;-73
2023/08/28 13:23:10;;;;;;;7.07;2.20;;;;;;;;;;4997267;28;20034;-75
2023/08/28 13:25:35;;;;;;;5.00;2.13;;;;;;;;;;5008377;28;20026;-76
2023/08/28 13:28:01;;;;;;;5.00;2.00;;;;;;;;;;5012500;28;20271;-76
2023/08/28 13:30:26;;;;;;;2.45;1.70;;;;;;;;;;5013884;28;20025;-77
2023/08/28 13:32:52;;;;;;;3.00;1.85;;;;;;;;;;5005116;28;20147;-76
2023/08/28 13:35:17;;;;;;;9.32;2.60;;;;;;;;;;5013981;28;20021;-66
2023/08/28 13:37:43;;;;;;;6.85;2.22;;;;;;;;;;5007129;28;20029;-66
2023/08/28 13:40:08;;;;;;;6.35;2.40;;;;;;;;;;5011419;28;20105;-66
2023/08/28 13:42:33;;;;;;;3.70;1.52;;;;;;;;;;4994515;28;20434;-66
2023/08/28 13:44:59;;;;;;;3.37;1.93;;;;;;;;;;5003179;28;20117;-66
2023/08/28 13:47:24;;;;;;;1.97;1.53;;;;;;;;;;5011255;28;20290;-66
2023/08/28 13:49:49;;;;;;;5.77;2.17;;;;;;;;;;5014155;28;20259;-66
2023/08/28 13:52:14;;;;;;;4.90;2.20;;;;;;;;;;5014123;28;20366;-66
2023/08/28 13:54:39;;;;;;;6.87;2.20;;;;;;;;;;5012654;28;20091;-66
2023/08/28 13:57:05;;;;;;;7.17;2.10;;;;;;;;;;5017109;28;20047;-66
2023/08/28 13:59:30;;;;;;;6.50;1.93;;;;;;;;;;5003653;28;20310;-66
2023/08/28 14:01:55;;;;;;;2.33;1.60;;;;;;;;;;5002887;28;20267;-65
2023/08/28 14:04:20;;;;;;;4.80;2.20;;;;;;;;;;5011268;28;20422;-65
2023/08/28 14:06:45;;;;;;;7.23;1.90;;;;;;;;;;5013872;28;20017;-65
2023/08/28 14:09:11;;;;;;;12.17;2.00;;;;;;;;;;5004488;28;20021;-66
2023/08/28 14:11:36;;;;;;;4.37;1.83;;;;;;;;;;5013735;28;20072;-65
2023/08/28 14:14:01;;;;;;;2.73;1.53;;;;;;;;;;5004035;28;20347;-65
2023/08/28 14:16:26;;;;;;;3.63;1.60;;;;;;;;;;5008550;28;20373;-66
2023/08/28 14:18:52;;;;;;;3.23;1.80;;;;;;;;;;5004920;28;20072;-66
2023/08/28 14:21:17;;;;;;;4.57;1.77;;;;;;;;;;5010880;28;20083;-66
2023/08/28 14:23:42;;;;;;;2.40;1.40;;;;;;;;;;5003776;28;20702;-66
2023/08/28 14:26:08;;;;;;;6.57;1.70;;;;;;;;;;5013662;28;20263;-66
2023/08/28 14:28:34;;;;;;;4.65;1.95;;;;;;;;;;5013795;28;20030;-66
2023/08/28 14:30:59;;;;;;;3.28;2.20;;;;;;;;;;5004786;28;20489;-66
2023/08/28 14:33:25;;;;;;;6.32;2.03;;;;;;;;;;5006237;28;20053;-66
2023/08/28 14:35:50;;;;;;;2.75;1.60;;;;;;;;;;4998378;28;20026;-66
2023/08/28 14:38:15;;;;;;;5.20;1.70;;;;;;;;;;4994138;28;20022;-66
2023/08/28 14:40:41;;;;;;;3.45;1.75;;;;;;;;;;4993893;28;20014;-66
2023/08/28 14:43:07;;;;;;;4.45;1.60;;;;;;;;;;4997398;28;20060;-66
2023/08/28 14:45:32;;;;;;;6.15;2.28;;;;;;;;;;4993032;28;20019;-77
2023/08/28 14:47:58;;;;;;;4.72;2.10;;;;;;;;;;5010762;28;20028;-77
2023/08/28 14:50:24;;;;;;;5.95;1.83;;;;;;;;;;5005359;28;20025;-77
2023/08/28 14:52:49;;;;;;;3.22;1.73;;;;;;;;;;5007063;28;20064;-76
2023/08/28 14:55:15;;;;;;;4.20;1.40;;;;;;;;;;5010137;28;20105;-77
2023/08/28 14:57:40;;;;;;;4.80;1.80;;;;;;;;;;5013246;28;20036;-76
2023/08/28 15:00:07;;;;;;;3.55;1.73;;;;;;;;;;5012708;28;20022;-76
2023/08/28 15:02:32;;;;;;;6.75;1.88;;;;;;;;;;5011566;28;20026;-77
2023/08/28 15:04:57;;;;;;;5.17;2.00;;;;;;;;;;5010172;28;21491;-76
2023/08/28 15:07:23;;;;;;;2.90;1.93;;;;;;;;;;4993557;28;20260;-77
2023/08/28 15:09:48;;;;;;;3.90;2.10;;;;;;;;;;4993816;28;20028;-76
2023/08/28 15:12:13;;;;;;;4.43;2.00;;;;;;;;;;5009427;28;20026;-76
2023/08/28 15:14:38;;;;;;;3.70;2.00;;;;;;;;;;5008572;28;20021;-76
2023/08/28 15:17:04;;;;;;;6.25;2.60;;;;;;;;;;5005203;28;20025;-76
2023/08/28 15:19:29;;;;;;;4.90;2.20;;;;;;;;;;5013073;28;20482;-76
2023/08/28 15:21:54;;;;;;;6.43;1.67;;;;;;;;;;5012353;28;20038;-76